Time;durP1;ratioP1;P1;durP2;ratioP2;P2;SDS_P1;SDS_P2;PMS_P1;PMS_P2;Temp;Humidity;BMP_temperature;BMP_pressure;BME280_temperature;BME280_humidity;BME280_pressure;Samples;Min_cycle;Max_cycle;Signal;HPM_P1;HPM_P2
2021/09/12 00:01:47;;;;;;;63.45;17.67;;;;;;;;;;5052908;28;20099;-76
2021/09/12 00:04:14;;;;;;;56.78;16.10;;;;;;;;;;5053010;28;20021;-76
2021/09/12 00:06:39;;;;;;;36.10;14.50;;;;;;;;;;5052804;28;20099;-76
2021/09/12 00:09:04;;;;;;;50.05;15.20;;;;;;;;;;5053275;28;20120;-75
2021/09/12 00:11:29;;;;;;;33.13;14.25;;;;;;;;;;5052660;28;20025;-76
2021/09/12 00:13:55;;;;;;;40.70;14.60;;;;;;;;;;5052552;28;20029;-75
2021/09/12 00:16:20;;;;;;;33.08;12.85;;;;;;;;;;5052623;28;20110;-75
2021/09/12 00:18:45;;;;;;;37.10;13.48;;;;;;;;;;5052668;28;20095;-76
2021/09/12 00:21:11;;;;;;;41.95;13.95;;;;;;;;;;5053249;28;20041;-76
2021/09/12 00:23:36;;;;;;;34.45;13.43;;;;;;;;;;5052846;28;20037;-76
2021/09/12 00:26:02;;;;;;;32.80;13.48;;;;;;;;;;5052110;28;20389;-76
2021/09/12 00:28:27;;;;;;;42.45;14.73;;;;;;;;;;5052378;28;20029;-76
2021/09/12 00:30:52;;;;;;;38.08;13.90;;;;;;;;;;5052584;28;20128;-76
2021/09/12 00:33:18;;;;;;;44.53;15.88;;;;;;;;;;5052667;28;20466;-77
2021/09/12 00:35:43;;;;;;;50.10;15.85;;;;;;;;;;5052347;28;20488;-76
2021/09/12 00:38:08;;;;;;;27.55;12.07;;;;;;;;;;5052043;28;20044;-75
2021/09/12 00:40:34;;;;;;;32.70;12.48;;;;;;;;;;5051864;28;20170;-76
2021/09/12 00:42:59;;;;;;;34.97;13.50;;;;;;;;;;5052132;28;20036;-75
2021/09/12 00:45:24;;;;;;;43.45;14.25;;;;;;;;;;5052123;28;20052;-78
2021/09/12 00:47:50;;;;;;;40.13;14.30;;;;;;;;;;5052239;28;20020;-75
2021/09/12 00:50:15;;;;;;;51.80;15.20;;;;;;;;;;5051960;28;20083;-76
2021/09/12 00:52:43;;;;;;;34.88;13.65;;;;;;;;;;5052400;28;20032;-75
2021/09/12 00:55:09;;;;;;;38.20;13.20;;;;;;;;;;5051925;28;20021;-76
2021/09/12 00:57:35;;;;;;;38.15;14.55;;;;;;;;;;5052007;28;20037;-75
2021/09/12 01:00:02;;;;;;;46.80;14.80;;;;;;;;;;5052550;28;20347;-79
2021/09/12 01:02:27;;;;;;;36.80;13.68;;;;;;;;;;5052770;28;20033;-76
2021/09/12 01:04:53;;;;;;;36.13;13.85;;;;;;;;;;5049000;28;20510;-75
2021/09/12 01:07:18;;;;;;;40.08;14.32;;;;;;;;;;5050963;28;20413;-76
2021/09/12 01:09:43;;;;;;;34.13;13.30;;;;;;;;;;5051738;28;20464;-76
2021/09/12 01:12:09;;;;;;;34.63;16.75;;;;;;;;;;5050470;28;20112;-75
2021/09/12 01:14:35;;;;;;;63.42;22.92;;;;;;;;;;5052181;28;20436;-75
2021/09/12 01:17:00;;;;;;;53.38;18.15;;;;;;;;;;5051588;28;20021;-76
2021/09/12 01:19:26;;;;;;;36.13;15.10;;;;;;;;;;5049922;28;20033;-75
2021/09/12 01:21:56;;;;;;;41.33;16.27;;;;;;;;;;5051554;28;20049;-76
2021/09/12 01:24:21;;;;;;;34.75;16.13;;;;;;;;;;5051549;28;20106;-76
2021/09/12 01:26:46;;;;;;;56.28;19.45;;;;;;;;;;5051047;28;20477;-76
2021/09/12 01:29:15;;;;;;;48.15;16.70;;;;;;;;;;5051484;28;20035;-76
2021/09/12 01:31:40;;;;;;;54.85;17.55;;;;;;;;;;5051223;28;20529;-76
2021/09/12 01:34:05;;;;;;;54.60;17.25;;;;;;;;;;5051533;28;20131;-76
2021/09/12 01:36:31;;;;;;;44.33;16.55;;;;;;;;;;5050926;28;20063;-76
2021/09/12 01:38:56;;;;;;;46.10;16.25;;;;;;;;;;5050857;28;20048;-76
2021/09/12 01:41:21;;;;;;;36.30;15.30;;;;;;;;;;5051160;28;20093;-78
2021/09/12 01:43:57;;;;;;;42.83;15.63;;;;;;;;;;5051065;28;20354;-76
2021/09/12 01:46:22;;;;;;;;;;;;;;;;;;5051578;28;20025;-78
2021/09/12 01:48:47;;;;;;;41.40;15.73;;;;;;;;;;5050863;28;19909;-76
2021/09/12 01:51:13;;;;;;;46.83;15.85;;;;;;;;;;5050462;28;20037;-76
2021/09/12 01:53:38;;;;;;;40.85;15.65;;;;;;;;;;5050909;28;20135;-76
2021/09/12 01:56:04;;;;;;;42.13;14.88;;;;;;;;;;5050526;28;20449;-78
2021/09/12 01:58:29;;;;;;;41.28;14.40;;;;;;;;;;5050685;28;20468;-78
2021/09/12 02:00:55;;;;;;;49.08;15.23;;;;;;;;;;5051262;28;20045;-76
2021/09/12 02:03:20;;;;;;;37.58;14.02;;;;;;;;;;5050994;28;20095;-76
2021/09/12 02:05:45;;;;;;;32.30;12.35;;;;;;;;;;5050480;28;20040;-76
2021/09/12 02:08:10;;;;;;;45.22;15.20;;;;;;;;;;5050629;28;20047;-76
2021/09/12 02:10:36;;;;;;;43.35;14.88;;;;;;;;;;5050371;28;20036;-76
2021/09/12 02:13:01;;;;;;;40.83;14.38;;;;;;;;;;5051312;28;20033;-76
2021/09/12 02:15:27;;;;;;;41.90;14.52;;;;;;;;;;5050453;28;20024;-76
2021/09/12 02:17:52;;;;;;;34.08;14.45;;;;;;;;;;5050619;28;20915;-75
2021/09/12 02:20:17;;;;;;;38.22;17.88;;;;;;;;;;5050332;28;20033;-75
2021/09/12 02:22:42;;;;;;;49.85;18.15;;;;;;;;;;5050349;28;20036;-76
2021/09/12 02:25:08;;;;;;;41.53;16.23;;;;;;;;;;5051206;28;20096;-76
2021/09/12 02:27:33;;;;;;;36.20;16.67;;;;;;;;;;5049644;28;20159;-78
2021/09/12 02:29:58;;;;;;;37.13;16.23;;;;;;;;;;5050281;28;20060;-76
2021/09/12 02:32:25;;;;;;;42.58;16.58;;;;;;;;;;5050085;28;20095;-75
2021/09/12 02:34:50;;;;;;;42.22;15.20;;;;;;;;;;5050241;28;20064;-76
2021/09/12 02:37:15;;;;;;;28.65;13.20;;;;;;;;;;5050161;28;20075;-76
2021/09/12 02:39:41;;;;;;;37.65;14.57;;;;;;;;;;5050069;28;20017;-75
2021/09/12 02:42:06;;;;;;;33.88;15.05;;;;;;;;;;5049728;28;20044;-76
2021/09/12 02:44:31;;;;;;;43.88;14.95;;;;;;;;;;5050284;28;20033;-76
2021/09/12 02:46:57;;;;;;;37.90;14.35;;;;;;;;;;5049841;28;20434;-76
2021/09/12 02:49:22;;;;;;;43.42;16.58;;;;;;;;;;5050399;28;20492;-78
2021/09/12 02:51:47;;;;;;;45.70;14.80;;;;;;;;;;5049864;28;20554;-76
2021/09/12 02:54:12;;;;;;;43.35;16.35;;;;;;;;;;5050391;28;20021;-76
2021/09/12 02:56:38;;;;;;;56.17;17.90;;;;;;;;;;5049593;28;20039;-76
2021/09/12 02:59:03;;;;;;;48.33;16.65;;;;;;;;;;5049935;28;20363;-76
2021/09/12 03:01:28;;;;;;;40.75;15.27;;;;;;;;;;5049254;28;20028;-79
2021/09/12 03:03:53;;;;;;;44.05;15.10;;;;;;;;;;5050509;28;20036;-76
2021/09/12 03:06:19;;;;;;;41.55;14.43;;;;;;;;;;5049349;28;20275;-76
2021/09/12 03:08:44;;;;;;;55.95;16.98;;;;;;;;;;5049316;28;20048;-76
2021/09/12 03:11:09;;;;;;;41.50;15.40;;;;;;;;;;5049702;28;20489;-76
2021/09/12 03:13:35;;;;;;;34.83;14.38;;;;;;;;;;5049664;28;20021;-78
2021/09/12 03:16:00;;;;;;;56.03;16.88;;;;;;;;;;5049888;28;20517;-76
2021/09/12 03:18:25;;;;;;;48.10;14.73;;;;;;;;;;5049477;28;20035;-76
2021/09/12 03:20:50;;;;;;;32.42;14.45;;;;;;;;;;5049305;28;20064;-76
2021/09/12 03:23:16;;;;;;;39.42;14.90;;;;;;;;;;5049897;28;20041;-76
2021/09/12 03:25:41;;;;;;;48.42;15.63;;;;;;;;;;5049681;28;20135;-76
2021/09/12 03:28:06;;;;;;;42.17;14.80;;;;;;;;;;5049660;28;20094;-78
2021/09/12 03:30:32;;;;;;;42.72;15.23;;;;;;;;;;5049689;28;20029;-75
2021/09/12 03:32:57;;;;;;;47.08;15.70;;;;;;;;;;5049284;28;20052;-76
2021/09/12 03:35:22;;;;;;;52.17;16.83;;;;;;;;;;5049722;28;20025;-76
2021/09/12 03:37:48;;;;;;;41.15;13.75;;;;;;;;;;5048481;28;20028;-76
2021/09/12 03:40:13;;;;;;;30.15;13.90;;;;;;;;;;5050152;28;20579;-76
2021/09/12 03:42:39;;;;;;;43.47;15.82;;;;;;;;;;5049533;28;20041;-76
2021/09/12 03:45:04;;;;;;;47.35;18.10;;;;;;;;;;5049840;28;20028;-75
2021/09/12 03:47:29;;;;;;;47.08;16.20;;;;;;;;;;5048973;28;20036;-76
2021/09/12 03:49:55;;;;;;;47.67;16.20;;;;;;;;;;5049670;28;20124;-76
2021/09/12 03:52:20;;;;;;;31.33;13.77;;;;;;;;;;5049915;28;20377;-76
2021/09/12 03:54:45;;;;;;;44.42;15.07;;;;;;;;;;5049305;28;20040;-75
2021/09/12 03:57:10;;;;;;;47.53;15.45;;;;;;;;;;5048945;28;20025;-75
2021/09/12 03:59:36;;;;;;;39.78;13.82;;;;;;;;;;5049357;28;20025;-76
2021/09/12 04:02:01;;;;;;;33.25;13.93;;;;;;;;;;5049293;28;20074;-76
2021/09/12 04:04:26;;;;;;;48.97;15.75;;;;;;;;;;5049788;28;20513;-76
2021/09/12 04:06:51;;;;;;;44.30;14.05;;;;;;;;;;5049072;28;20025;-76
2021/09/12 04:09:17;;;;;;;49.15;15.02;;;;;;;;;;5048655;28;20029;-76
2021/09/12 04:11:42;;;;;;;41.22;13.93;;;;;;;;;;5049013;28;20489;-76
2021/09/12 04:14:07;;;;;;;41.92;14.32;;;;;;;;;;5051949;28;20096;-76
2021/09/12 04:16:33;;;;;;;40.65;13.48;;;;;;;;;;5051701;28;20041;-76
2021/09/12 04:18:58;;;;;;;41.50;14.07;;;;;;;;;;5052446;28;20076;-76
2021/09/12 04:21:23;;;;;;;54.03;14.82;;;;;;;;;;5052330;28;20431;-76
2021/09/12 04:23:49;;;;;;;49.03;15.48;;;;;;;;;;5052768;28;20033;-76
2021/09/12 04:26:14;;;;;;;35.95;13.98;;;;;;;;;;5052380;28;20036;-76
2021/09/12 04:28:39;;;;;;;46.63;14.90;;;;;;;;;;5051746;28;20475;-79
2021/09/12 04:31:05;;;;;;;46.00;14.68;;;;;;;;;;5053178;28;20374;-77
2021/09/12 04:33:30;;;;;;;25.17;11.77;;;;;;;;;;5052234;28;20060;-77
2021/09/12 04:35:56;;;;;;;43.92;14.50;;;;;;;;;;5052032;28;20029;-77
2021/09/12 04:38:21;;;;;;;28.48;12.95;;;;;;;;;;5052343;28;20041;-77
2021/09/12 04:40:46;;;;;;;38.97;14.02;;;;;;;;;;5052667;28;20039;-78
2021/09/12 04:43:12;;;;;;;36.25;13.93;;;;;;;;;;5053056;28;20381;-76
2021/09/12 04:45:37;;;;;;;47.10;14.68;;;;;;;;;;5052681;28;20373;-76
2021/09/12 04:48:02;;;;;;;48.67;14.25;;;;;;;;;;5051598;28;20112;-77
2021/09/12 04:50:28;;;;;;;44.63;14.32;;;;;;;;;;5050806;28;20021;-77
2021/09/12 04:52:53;;;;;;;45.25;13.68;;;;;;;;;;5052025;28;20099;-76
2021/09/12 04:55:18;;;;;;;44.58;14.57;;;;;;;;;;5052728;28;20083;-76
2021/09/12 04:57:44;;;;;;;31.90;13.32;;;;;;;;;;5051459;28;20450;-76
2021/09/12 05:00:10;;;;;;;35.30;13.60;;;;;;;;;;5051534;28;20037;-77
2021/09/12 05:02:35;;;;;;;37.45;13.85;;;;;;;;;;5051956;28;20241;-77
2021/09/12 05:05:00;;;;;;;35.75;13.32;;;;;;;;;;5051746;28;20025;-77
2021/09/12 05:07:26;;;;;;;35.78;13.82;;;;;;;;;;5052435;28;20044;-76
2021/09/12 05:09:51;;;;;;;43.35;15.15;;;;;;;;;;5051486;28;20447;-77
2021/09/12 05:12:16;;;;;;;37.17;14.13;;;;;;;;;;5051872;28;20028;-76
2021/09/12 05:14:41;;;;;;;38.63;13.10;;;;;;;;;;5051639;28;20032;-76
2021/09/12 05:17:07;;;;;;;35.63;13.38;;;;;;;;;;5051553;28;20052;-77
2021/09/12 05:19:32;;;;;;;30.92;12.55;;;;;;;;;;5051845;28;20017;-76
2021/09/12 05:21:57;;;;;;;46.17;13.65;;;;;;;;;;5052189;28;20045;-76
2021/09/12 05:24:23;;;;;;;43.67;13.98;;;;;;;;;;5051249;28;20111;-76
2021/09/12 05:26:48;;;;;;;48.33;15.00;;;;;;;;;;5051493;28;20021;-76
2021/09/12 05:29:13;;;;;;;38.92;13.45;;;;;;;;;;5051398;28;20033;-76
2021/09/12 05:31:39;;;;;;;41.55;13.70;;;;;;;;;;5051610;28;20477;-78
2021/09/12 05:34:04;;;;;;;33.75;12.73;;;;;;;;;;5051952;28;20036;-76
2021/09/12 05:36:29;;;;;;;25.77;11.13;;;;;;;;;;5050888;28;20059;-76
2021/09/12 05:38:54;;;;;;;31.50;11.35;;;;;;;;;;5050475;28;20036;-76
2021/09/12 05:41:20;;;;;;;28.00;11.30;;;;;;;;;;5051044;28;20060;-76
2021/09/12 05:43:45;;;;;;;28.23;12.18;;;;;;;;;;5051195;28;20024;-77
2021/09/12 05:46:11;;;;;;;37.58;11.70;;;;;;;;;;5051758;28;20519;-77
2021/09/12 05:48:36;;;;;;;30.08;11.73;;;;;;;;;;5050794;28;20944;-76
2021/09/12 05:51:01;;;;;;;43.42;13.00;;;;;;;;;;5050639;28;20036;-76
2021/09/12 05:53:27;;;;;;;57.00;16.88;;;;;;;;;;5050929;28;20075;-76
2021/09/12 05:55:52;;;;;;;34.67;13.13;;;;;;;;;;5050769;28;20449;-76
2021/09/12 05:58:18;;;;;;;47.75;14.02;;;;;;;;;;5051212;28;20033;-76
2021/09/12 06:00:43;;;;;;;40.50;12.80;;;;;;;;;;5050571;28;20033;-76
2021/09/12 06:03:09;;;;;;;45.40;13.55;;;;;;;;;;5050638;28;20048;-77
2021/09/12 06:05:34;;;;;;;33.22;11.68;;;;;;;;;;5050731;28;20378;-76
2021/09/12 06:08:00;;;;;;;29.38;13.43;;;;;;;;;;5050580;28;20025;-76
2021/09/12 06:10:25;;;;;;;44.58;12.95;;;;;;;;;;5051169;28;20159;-77
2021/09/12 06:12:50;;;;;;;37.05;11.00;;;;;;;;;;5050494;28;20044;-76
2021/09/12 06:15:15;;;;;;;22.75;10.07;;;;;;;;;;5050509;28;20048;-77
2021/09/12 06:17:41;;;;;;;22.98;10.43;;;;;;;;;;5050289;28;20021;-77
2021/09/12 06:20:06;;;;;;;37.97;12.60;;;;;;;;;;5050030;28;20040;-77
2021/09/12 06:22:31;;;;;;;50.40;12.23;;;;;;;;;;5050765;28;20075;-79
2021/09/12 06:24:57;;;;;;;37.65;12.18;;;;;;;;;;5050667;28;20031;-77
2021/09/12 06:27:22;;;;;;;34.53;10.90;;;;;;;;;;5043387;28;20043;-77
2021/09/12 06:29:48;;;;;;;33.53;11.32;;;;;;;;;;5030663;28;20063;-77
2021/09/12 06:32:13;;;;;;;33.72;11.60;;;;;;;;;;5030222;28;20129;-77
2021/09/12 06:34:38;;;;;;;36.63;11.73;;;;;;;;;;5030379;28;20390;-79
2021/09/12 06:37:04;;;;;;;26.35;9.88;;;;;;;;;;5041648;28;20377;-76
2021/09/12 06:39:29;;;;;;;20.35;10.00;;;;;;;;;;5049912;28;20032;-76
2021/09/12 06:41:55;;;;;;;23.42;9.32;;;;;;;;;;5049583;28;20385;-76
2021/09/12 06:44:20;;;;;;;33.10;11.25;;;;;;;;;;5050376;28;20060;-76
2021/09/12 06:46:46;;;;;;;25.88;9.90;;;;;;;;;;5049949;28;20017;-77
2021/09/12 06:49:11;;;;;;;37.17;12.13;;;;;;;;;;5050344;28;20035;-76
2021/09/12 06:51:36;;;;;;;25.70;10.90;;;;;;;;;;5049331;28;20036;-76
2021/09/12 06:54:01;;;;;;;24.33;9.38;;;;;;;;;;5050058;28;20358;-76
2021/09/12 06:56:27;;;;;;;27.85;9.35;;;;;;;;;;5049292;28;20028;-76
2021/09/12 06:58:52;;;;;;;35.08;10.65;;;;;;;;;;5049776;28;20032;-76
2021/09/12 07:01:17;;;;;;;28.00;10.52;;;;;;;;;;5050372;28;20087;-77
2021/09/12 07:03:43;;;;;;;86.47;13.70;;;;;;;;;;5049762;28;20033;-76
2021/09/12 07:06:08;;;;;;;31.33;11.45;;;;;;;;;;5049370;28;20032;-76
2021/09/12 07:08:33;;;;;;;75.85;14.85;;;;;;;;;;5045647;28;20060;-80
2021/09/12 07:10:59;;;;;;;15.70;8.48;;;;;;;;;;5045190;28;20480;-78
2021/09/12 07:13:24;;;;;;;39.70;10.48;;;;;;;;;;5050187;28;20029;-78
2021/09/12 07:15:49;;;;;;;16.00;6.65;;;;;;;;;;5053935;28;20399;-77
2021/09/12 07:18:15;;;;;;;145.98;14.43;;;;;;;;;;5050906;28;20110;-76
2021/09/12 07:20:40;;;;;;;12.07;6.75;;;;;;;;;;5064657;28;20135;-77
2021/09/12 07:23:06;;;;;;;15.18;6.10;;;;;;;;;;5057684;28;20032;-77
2021/09/12 07:25:31;;;;;;;9.85;4.80;;;;;;;;;;5058341;28;20044;-77
2021/09/12 07:27:57;;;;;;;9.93;4.07;;;;;;;;;;5067329;28;20107;-77
2021/09/12 07:30:22;;;;;;;5.35;3.70;;;;;;;;;;5055075;28;20103;-77
2021/09/12 07:32:47;;;;;;;7.32;2.67;;;;;;;;;;5066288;28;20040;-78
2021/09/12 07:35:13;;;;;;;4.72;2.63;;;;;;;;;;5061366;28;20027;-78
2021/09/12 07:37:38;;;;;;;7.32;2.58;;;;;;;;;;5068509;28;20104;-77
2021/09/12 07:40:04;;;;;;;8.55;3.22;;;;;;;;;;5056050;28;20033;-77
2021/09/12 07:42:30;;;;;;;3.08;2.60;;;;;;;;;;5068492;28;20036;-78
2021/09/12 07:44:55;;;;;;;5.13;2.53;;;;;;;;;;5059052;28;20190;-77
2021/09/12 07:47:20;;;;;;;3.90;2.70;;;;;;;;;;5062015;28;20033;-77
2021/09/12 07:49:45;;;;;;;10.68;2.55;;;;;;;;;;5056771;28;20056;-78
2021/09/12 07:52:11;;;;;;;3.28;2.00;;;;;;;;;;5056131;28;20070;-78
2021/09/12 07:54:36;;;;;;;6.00;2.22;;;;;;;;;;5056520;28;20040;-78
2021/09/12 07:57:01;;;;;;;3.95;2.58;;;;;;;;;;5056187;28;20087;-80
2021/09/12 07:59:29;;;;;;;5.55;2.63;;;;;;;;;;5056399;28;20446;-78
2021/09/12 08:01:55;;;;;;;5.30;2.85;;;;;;;;;;5056105;28;20087;-76
2021/09/12 08:04:20;;;;;;;6.47;2.38;;;;;;;;;;5055826;28;20040;-76
2021/09/12 08:06:45;;;;;;;4.63;3.00;;;;;;;;;;5056080;28;20525;-77
2021/09/12 08:09:11;;;;;;;10.27;2.72;;;;;;;;;;5055921;28;20036;-77
2021/09/12 08:11:37;;;;;;;3.42;2.17;;;;;;;;;;5054871;28;20029;-78
2021/09/12 08:14:03;;;;;;;4.75;2.53;;;;;;;;;;5055562;28;20023;-79
2021/09/12 08:16:28;;;;;;;3.55;2.00;;;;;;;;;;5055713;28;20025;-77
2021/09/12 08:18:53;;;;;;;3.60;1.90;;;;;;;;;;5055501;28;20036;-76
2021/09/12 08:21:18;;;;;;;6.93;2.37;;;;;;;;;;5055862;28;20281;-78
2021/09/12 08:23:44;;;;;;;3.75;2.03;;;;;;;;;;5055614;28;20773;-77
2021/09/12 08:26:09;;;;;;;4.00;2.03;;;;;;;;;;5055332;28;20104;-77
2021/09/12 08:28:34;;;;;;;4.15;2.00;;;;;;;;;;5055753;28;20041;-77
2021/09/12 08:31:00;;;;;;;7.00;2.80;;;;;;;;;;5055684;28;20116;-77
2021/09/12 08:33:25;;;;;;;5.10;2.97;;;;;;;;;;5055463;28;20733;-77
2021/09/12 08:35:50;;;;;;;5.10;2.30;;;;;;;;;;5055632;28;20342;-76
2021/09/12 08:38:16;;;;;;;5.45;2.22;;;;;;;;;;5055180;28;20351;-77
2021/09/12 08:40:41;;;;;;;3.38;1.90;;;;;;;;;;5055588;28;20054;-76
2021/09/12 08:43:07;;;;;;;5.32;2.78;;;;;;;;;;5055124;28;20025;-76
2021/09/12 08:45:33;;;;;;;4.60;2.30;;;;;;;;;;5055402;28;20043;-76
2021/09/12 08:47:58;;;;;;;5.13;2.28;;;;;;;;;;5055553;28;20056;-76
2021/09/12 08:50:23;;;;;;;3.40;1.80;;;;;;;;;;5055406;28;20104;-76
2021/09/12 08:52:48;;;;;;;3.80;1.55;;;;;;;;;;5055190;28;20484;-76
2021/09/12 08:55:14;;;;;;;3.72;1.65;;;;;;;;;;5055488;28;20369;-76
2021/09/12 08:57:50;;;;;;;4.22;2.33;;;;;;;;;;5055096;28;20048;-75
2021/09/12 09:00:25;;;;;;;6.47;2.40;;;;;;;;;;5053923;28;20025;-76
2021/09/12 09:02:55;;;;;;;4.47;1.60;;;;;;;;;;5055201;28;20033;-77
2021/09/12 09:05:27;;;;;;;3.70;1.48;;;;;;;;;;5055060;28;20365;-76
2021/09/12 09:08:02;;;;;;;3.17;1.70;;;;;;;;;;5054575;28;20441;-76
2021/09/12 09:10:27;;;;;;;2.85;1.52;;;;;;;;;;5054945;28;20031;-76
2021/09/12 09:12:55;;;;;;;4.45;1.70;;;;;;;;;;5055097;28;20017;-76
2021/09/12 09:15:21;;;;;;;4.80;1.70;;;;;;;;;;5054878;28;20025;-76
2021/09/12 09:17:50;;;;;;;4.68;1.75;;;;;;;;;;5054846;28;20364;-77
2021/09/12 09:20:15;;;;;;;3.38;1.50;;;;;;;;;;5055118;28;20104;-76
2021/09/12 09:22:42;;;;;;;5.68;1.70;;;;;;;;;;5054620;28;20127;-75
2021/09/12 09:25:18;;;;;;;4.18;2.20;;;;;;;;;;5054824;28;20031;-77
2021/09/12 09:28:00;;;;;;;3.20;1.60;;;;;;;;;;5054362;28;20472;-75
2021/09/12 09:30:27;;;;;;;2.15;1.40;;;;;;;;;;5054693;28;20029;-75
2021/09/12 09:32:52;;;;;;;4.07;1.67;;;;;;;;;;5052907;28;20075;-76
2021/09/12 09:35:24;;;;;;;5.13;1.85;;;;;;;;;;5054406;28;20421;-77
2021/09/12 09:37:50;;;;;;;2.95;1.55;;;;;;;;;;5054292;28;20025;-77
2021/09/12 09:40:16;;;;;;;5.53;1.83;;;;;;;;;;5054116;28;20453;-76
2021/09/12 09:42:42;;;;;;;3.08;1.50;;;;;;;;;;5053779;28;20037;-76
2021/09/12 09:45:12;;;;;;;5.20;1.75;;;;;;;;;;5054317;28;20029;-76
2021/09/12 09:47:38;;;;;;;5.43;2.20;;;;;;;;;;5054070;28;20044;-76
2021/09/12 09:50:03;;;;;;;3.75;1.98;;;;;;;;;;5053983;28;20461;-76
2021/09/12 09:52:29;;;;;;;4.95;2.35;;;;;;;;;;5053890;28;20366;-78
2021/09/12 09:54:55;;;;;;;5.03;2.08;;;;;;;;;;5054206;28;20021;-76
2021/09/12 09:57:20;;;;;;;4.00;1.67;;;;;;;;;;5053851;28;20462;-77
2021/09/12 09:59:46;;;;;;;2.97;1.52;;;;;;;;;;5054221;28;20040;-77
2021/09/12 10:02:12;;;;;;;3.00;1.50;;;;;;;;;;5053813;28;20033;-77
2021/09/12 10:04:38;;;;;;;5.10;1.30;;;;;;;;;;5053598;28;20507;-77
2021/09/12 10:07:03;;;;;;;2.58;1.75;;;;;;;;;;5053880;28;20497;-77
2021/09/12 10:09:29;;;;;;;2.17;1.38;;;;;;;;;;5053753;28;20021;-76
2021/09/12 10:11:55;;;;;;;2.65;1.67;;;;;;;;;;5053398;28;20039;-78
2021/09/12 10:14:33;;;;;;;3.83;1.63;;;;;;;;;;5053575;28;20065;-77
2021/09/12 10:16:59;;;;;;;3.65;1.60;;;;;;;;;;5053345;28;20460;-76
2021/09/12 10:19:32;;;;;;;3.20;1.40;;;;;;;;;;5053431;28;20032;-77
2021/09/12 10:21:58;;;;;;;3.47;1.83;;;;;;;;;;5053526;28;20067;-76
2021/09/12 10:24:23;;;;;;;2.85;1.60;;;;;;;;;;5053443;28;20033;-76
2021/09/12 10:26:49;;;;;;;2.40;1.50;;;;;;;;;;5052106;28;20108;-77
2021/09/12 10:29:33;;;;;;;3.97;1.80;;;;;;;;;;5053346;28;20025;-76
2021/09/12 10:31:58;;;;;;;4.35;1.65;;;;;;;;;;5051916;28;22470;-77
2021/09/12 10:34:23;;;;;;;3.80;1.98;;;;;;;;;;5053279;28;20047;-76
2021/09/12 10:36:48;;;;;;;4.03;1.90;;;;;;;;;;5053282;28;20025;-75
2021/09/12 10:39:46;;;;;;;3.17;1.80;;;;;;;;;;5053430;28;20025;-76
2021/09/12 10:42:11;;;;;;;3.03;1.50;;;;;;;;;;5040913;28;20044;-76
2021/09/12 10:44:37;;;;;;;2.20;1.50;;;;;;;;;;5053171;28;20032;-76
2021/09/12 10:47:06;;;;;;;2.70;1.70;;;;;;;;;;5052990;28;20021;-77
2021/09/12 10:49:32;;;;;;;2.92;1.75;;;;;;;;;;5052830;28;20021;-76
2021/09/12 10:51:57;;;;;;;4.95;1.60;;;;;;;;;;5053009;28;20115;-78
2021/09/12 10:54:22;;;;;;;3.67;1.80;;;;;;;;;;5052932;28;20067;-79
2021/09/12 10:57:02;;;;;;;1.88;1.40;;;;;;;;;;5053109;28;20446;-76
2021/09/12 10:59:27;;;;;;;5.65;1.77;;;;;;;;;;5052775;28;20033;-77
2021/09/12 11:01:55;;;;;;;1.67;1.20;;;;;;;;;;5052969;28;20033;-78
2021/09/12 11:04:27;;;;;;;2.58;1.30;;;;;;;;;;5052887;28;20032;-77
2021/09/12 11:06:57;;;;;;;6.00;1.60;;;;;;;;;;5053424;28;20025;-76
2021/09/12 11:09:23;;;;;;;4.75;1.85;;;;;;;;;;5052738;28;20033;-76
2021/09/12 11:11:59;;;;;;;2.55;1.40;;;;;;;;;;5052990;28;20108;-76
2021/09/12 11:14:25;;;;;;;3.72;1.42;;;;;;;;;;5052743;28;20033;-76
2021/09/12 11:16:51;;;;;;;4.45;1.45;;;;;;;;;;5052908;28;20125;-76
2021/09/12 11:19:16;;;;;;;3.85;1.60;;;;;;;;;;5052999;28;20096;-76
2021/09/12 11:21:44;;;;;;;2.75;1.30;;;;;;;;;;5052570;28;20049;-76
2021/09/12 11:24:13;;;;;;;2.33;1.50;;;;;;;;;;5055814;28;20070;-76
2021/09/12 11:26:39;;;;;;;2.92;1.60;;;;;;;;;;5056923;28;20025;-76
2021/09/12 11:29:06;;;;;;;4.60;1.50;;;;;;;;;;5056819;28;20025;-76
2021/09/12 11:31:32;;;;;;;3.15;1.30;;;;;;;;;;5056771;28;20033;-76
2021/09/12 11:33:57;;;;;;;3.35;1.50;;;;;;;;;;5056224;28;20052;-76
2021/09/12 11:36:23;;;;;;;3.92;1.25;;;;;;;;;;5056283;28;20025;-76
2021/09/12 11:38:55;;;;;;;3.67;1.70;;;;;;;;;;5056662;28;20033;-76
2021/09/12 11:41:22;;;;;;;2.35;1.40;;;;;;;;;;5056632;28;20054;-76
2021/09/12 11:43:54;;;;;;;4.40;1.58;;;;;;;;;;5056452;28;20032;-76
2021/09/12 11:46:19;;;;;;;3.63;1.50;;;;;;;;;;5056513;28;20123;-77
2021/09/12 11:48:55;;;;;;;5.90;1.70;;;;;;;;;;5056387;28;20159;-77
2021/09/12 11:51:27;;;;;;;3.70;1.27;;;;;;;;;;5056405;28;20037;-77
2021/09/12 11:54:03;;;;;;;2.00;1.50;;;;;;;;;;5056293;28;20025;-76
2021/09/12 11:56:28;;;;;;;2.55;1.30;;;;;;;;;;5056388;28;20025;-77
2021/09/12 11:58:53;;;;;;;2.38;1.40;;;;;;;;;;5056234;28;20028;-77
2021/09/12 12:01:19;;;;;;;2.72;1.33;;;;;;;;;;5056046;28;20114;-77
2021/09/12 12:03:44;;;;;;;3.25;1.40;;;;;;;;;;5056197;28;20454;-77
2021/09/12 12:06:10;;;;;;;2.50;1.33;;;;;;;;;;5056188;28;20354;-75
2021/09/12 12:08:35;;;;;;;2.92;1.58;;;;;;;;;;5055695;28;20028;-75
2021/09/12 12:11:04;;;;;;;4.63;1.45;;;;;;;;;;5055737;28;20048;-76
2021/09/12 12:13:30;;;;;;;2.17;1.15;;;;;;;;;;5055847;28;20039;-76
2021/09/12 12:15:59;;;;;;;1.77;1.40;;;;;;;;;;5056064;28;20025;-77
2021/09/12 12:18:25;;;;;;;1.92;1.40;;;;;;;;;;5055810;28;20025;-75
2021/09/12 12:20:50;;;;;;;3.63;1.48;;;;;;;;;;5055922;28;20033;-75
2021/09/12 12:23:22;;;;;;;1.95;1.13;;;;;;;;;;5055371;28;20066;-75
2021/09/12 12:25:49;;;;;;;3.28;1.42;;;;;;;;;;5055427;28;20540;-75
2021/09/12 12:28:15;;;;;;;2.00;1.10;;;;;;;;;;5055454;28;20029;-75
2021/09/12 12:30:41;;;;;;;3.97;1.35;;;;;;;;;;5055406;28;20462;-75
2021/09/12 12:33:06;;;;;;;2.40;1.60;;;;;;;;;;5055334;28;20051;-75
2021/09/12 12:35:32;;;;;;;4.95;1.90;;;;;;;;;;5055093;28;20029;-75
2021/09/12 12:37:57;;;;;;;3.67;1.20;;;;;;;;;;5055422;28;20021;-75
2021/09/12 12:40:23;;;;;;;2.85;1.30;;;;;;;;;;5055645;28;20389;-76
2021/09/12 12:42:49;;;;;;;3.20;1.30;;;;;;;;;;5055311;28;20036;-75
2021/09/12 12:45:22;;;;;;;2.17;1.58;;;;;;;;;;5055468;28;20025;-75
2021/09/12 12:47:48;;;;;;;1.80;1.40;;;;;;;;;;5055276;28;20095;-75
2021/09/12 12:50:26;;;;;;;3.40;1.50;;;;;;;;;;5055187;28;20052;-75
2021/09/12 12:53:05;;;;;;;3.45;1.50;;;;;;;;;;5055265;28;20036;-75
2021/09/12 12:55:30;;;;;;;3.00;1.40;;;;;;;;;;5055169;28;20083;-75
2021/09/12 12:57:58;;;;;;;5.88;1.40;;;;;;;;;;5054995;28;20033;-75
2021/09/12 13:00:23;;;;;;;3.38;1.73;;;;;;;;;;5055175;28;20047;-75
2021/09/12 13:02:48;;;;;;;3.70;1.52;;;;;;;;;;5054654;28;20144;-75
2021/09/12 13:05:13;;;;;;;5.30;2.28;;;;;;;;;;5055086;28;20033;-75
2021/09/12 13:07:38;;;;;;;2.90;1.80;;;;;;;;;;5054880;28;20423;-75
2021/09/12 13:10:05;;;;;;;5.57;1.70;;;;;;;;;;5054975;28;20101;-75
2021/09/12 13:12:30;;;;;;;5.50;1.67;;;;;;;;;;5054961;28;20469;-75
2021/09/12 13:14:55;;;;;;;2.03;1.42;;;;;;;;;;5054555;28;20029;-76
2021/09/12 13:17:20;;;;;;;2.53;1.40;;;;;;;;;;5054752;28;20017;-75
2021/09/12 13:19:46;;;;;;;2.63;1.70;;;;;;;;;;5054580;28;20024;-75
2021/09/12 13:22:11;;;;;;;2.38;1.42;;;;;;;;;;5054493;28;20063;-75
2021/09/12 13:24:36;;;;;;;6.00;1.80;;;;;;;;;;5054191;28;20446;-75
2021/09/12 13:27:02;;;;;;;2.72;1.80;;;;;;;;;;5054530;28;20024;-75
2021/09/12 13:29:27;;;;;;;5.15;1.88;;;;;;;;;;5054272;28;20044;-75
2021/09/12 13:31:52;;;;;;;3.10;1.80;;;;;;;;;;5053716;28;20385;-75
2021/09/12 13:34:17;;;;;;;4.65;1.50;;;;;;;;;;5049523;28;20053;-75
2021/09/12 13:36:43;;;;;;;3.17;1.67;;;;;;;;;;5049302;28;20143;-76
2021/09/12 13:39:08;;;;;;;4.03;2.08;;;;;;;;;;5045200;28;20076;-75
2021/09/12 13:41:33;;;;;;;3.78;2.28;;;;;;;;;;5034609;28;20034;-75
2021/09/12 13:43:59;;;;;;;2.90;1.35;;;;;;;;;;5042895;28;20032;-75
2021/09/12 13:46:24;;;;;;;2.88;1.40;;;;;;;;;;5036363;28;20017;-77
2021/09/12 13:48:49;;;;;;;3.15;1.67;;;;;;;;;;5034111;28;20481;-75
2021/09/12 13:51:16;;;;;;;2.97;1.30;;;;;;;;;;5034291;28;20120;-77
2021/09/12 13:53:41;;;;;;;6.50;1.75;;;;;;;;;;5034159;28;20017;-74
2021/09/12 13:56:07;;;;;;;2.38;1.33;;;;;;;;;;5034265;28;20029;-75
2021/09/12 13:58:32;;;;;;;4.35;1.95;;;;;;;;;;5033773;28;20466;-75
2021/09/12 14:00:57;;;;;;;1.95;1.50;;;;;;;;;;5033942;28;20468;-75
2021/09/12 14:03:23;;;;;;;3.38;1.60;;;;;;;;;;5033620;28;20036;-76
2021/09/12 14:05:48;;;;;;;4.65;1.67;;;;;;;;;;5033496;28;20335;-76
2021/09/12 14:08:13;;;;;;;4.43;1.63;;;;;;;;;;5031363;28;20382;-76
2021/09/12 14:10:39;;;;;;;4.63;1.50;;;;;;;;;;5032943;28;20045;-76
2021/09/12 14:13:04;;;;;;;3.10;1.60;;;;;;;;;;5031693;28;20128;-75
2021/09/12 14:15:29;;;;;;;3.55;1.50;;;;;;;;;;5032735;28;20028;-76
2021/09/12 14:17:54;;;;;;;3.42;1.83;;;;;;;;;;5032933;28;20037;-75
2021/09/12 14:20:20;;;;;;;3.97;1.42;;;;;;;;;;5033407;28;20116;-75
2021/09/12 14:22:45;;;;;;;3.13;1.50;;;;;;;;;;5032970;28;20041;-75
2021/09/12 14:25:10;;;;;;;2.92;1.52;;;;;;;;;;5033713;28;20031;-76